Albion, New York
Current Conditions -  °F | °C
As of 9:54 PM on Friday 24 Oct 2014 (Local Time) from KROC Reporting Station
Scattered Clouds Scattered Clouds  
Wind Chill:   Ceiling: Unl
Heat Index:   Visibility: 10mi
Dew Point:   Wind: 6mph
Humidity: 83%   Direction: 240°WSW
Pressure: 29.94"   Gusts: NA
Location:  43.25°N, 78.19°W
Report Text: KROC 250154Z 24005KT 10SM SCT180 08/05 A2994 RMK AO2 SLP144 T00780050
Loading
Personal Weather Stations






























Interactive Weather Map
Tropical Storm Tracking
New forecast layout! Learn more

10-Day Weather Forecast

Advertisements
Track Severe Weather on mobile